sensor_id;sensor_type;location;lat;lon;timestamp;pressure;altitude;pressure_sealevel;temperature;humidity
23473;BME280;11909;52.516;13.564;2023-01-25T00:00:05;103232.75;;;0.64;93.13
23473;BME280;11909;52.516;13.564;2023-01-25T00:02:34;103228.03;;;0.66;92.60
23473;BME280;11909;52.516;13.564;2023-01-25T00:05:02;103215.81;;;0.62;92.88
23473;BME280;11909;52.516;13.564;2023-01-25T00:07:30;103205.41;;;0.67;92.83
23473;BME280;11909;52.516;13.564;2023-01-25T00:09:58;103205.09;;;0.70;92.72
23473;BME280;11909;52.516;13.564;2023-01-25T00:12:26;103202.25;;;0.71;92.89
23473;BME280;11909;52.516;13.564;2023-01-25T00:14:53;103196.03;;;0.79;92.42
23473;BME280;11909;52.516;13.564;2023-01-25T00:17:21;103192.97;;;0.74;92.54
23473;BME280;11909;52.516;13.564;2023-01-25T00:19:50;103182.31;;;0.73;92.49
23473;BME280;11909;52.516;13.564;2023-01-25T00:22:18;103180.13;;;0.76;93.05
23473;BME280;11909;52.516;13.564;2023-01-25T00:24:45;103173.34;;;0.72;93.17
23473;BME280;11909;52.516;13.564;2023-01-25T00:27:13;103165.00;;;0.65;92.65
23473;BME280;11909;52.516;13.564;2023-01-25T00:29:59;103158.06;;;0.63;93.05
23473;BME280;11909;52.516;13.564;2023-01-25T00:32:32;103155.06;;;0.66;93.27
23473;BME280;11909;52.516;13.564;2023-01-25T00:35:10;103140.38;;;0.68;92.73
23473;BME280;11909;52.516;13.564;2023-01-25T00:37:39;103130.56;;;0.67;92.75
23473;BME280;11909;52.516;13.564;2023-01-25T00:40:10;103125.38;;;0.74;92.08
23473;BME280;11909;52.516;13.564;2023-01-25T00:42:39;103129.88;;;0.65;92.39
23473;BME280;11909;52.516;13.564;2023-01-25T00:45:09;103123.44;;;0.66;92.75
23473;BME280;11909;52.516;13.564;2023-01-25T00:47:38;103119.59;;;0.69;92.74
23473;BME280;11909;52.516;13.564;2023-01-25T00:50:08;103123.53;;;0.75;92.31
23473;BME280;11909;52.516;13.564;2023-01-25T00:52:36;103111.25;;;0.62;92.41
23473;BME280;11909;52.516;13.564;2023-01-25T00:55:07;103107.88;;;0.60;93.67
23473;BME280;11909;52.516;13.564;2023-01-25T00:57:35;103107.56;;;0.63;93.87
23473;BME280;11909;52.516;13.564;2023-01-25T01:00:03;103109.94;;;0.66;93.98
23473;BME280;11909;52.516;13.564;2023-01-25T01:02:31;103115.19;;;0.68;93.80
23473;BME280;11909;52.516;13.564;2023-01-25T01:04:59;103117.91;;;0.68;94.37
23473;BME280;11909;52.516;13.564;2023-01-25T01:07:28;103118.22;;;0.65;94.35
23473;BME280;11909;52.516;13.564;2023-01-25T01:09:55;103128.16;;;0.64;94.33
23473;BME280;11909;52.516;13.564;2023-01-25T01:12:24;103126.16;;;0.66;94.34
23473;BME280;11909;52.516;13.564;2023-01-25T01:21:37;103119.19;;;0.82;94.15
23473;BME280;11909;52.516;13.564;2023-01-25T01:24:07;103108.53;;;0.80;93.81
23473;BME280;11909;52.516;13.564;2023-01-25T01:26:35;103114.13;;;0.79;93.77
23473;BME280;11909;52.516;13.564;2023-01-25T01:29:03;103114.44;;;0.76;93.85
23473;BME280;11909;52.516;13.564;2023-01-25T01:31:31;103123.88;;;0.71;93.91
23473;BME280;11909;52.516;13.564;2023-01-25T01:33:59;103118.13;;;0.75;94.35
23473;BME280;11909;52.516;13.564;2023-01-25T01:36:28;103118.19;;;0.83;94.30
23473;BME280;11909;52.516;13.564;2023-01-25T01:38:57;103116.50;;;0.82;94.16
23473;BME280;11909;52.516;13.564;2023-01-25T01:41:26;103107.84;;;0.78;94.45
23473;BME280;11909;52.516;13.564;2023-01-25T01:43:53;103112.25;;;0.79;94.47
23473;BME280;11909;52.516;13.564;2023-01-25T01:46:24;103107.00;;;0.78;94.84
23473;BME280;11909;52.516;13.564;2023-01-25T01:48:56;103104.75;;;0.73;94.84
23473;BME280;11909;52.516;13.564;2023-01-25T01:51:35;103098.72;;;0.79;95.10
23473;BME280;11909;52.516;13.564;2023-01-25T01:54:08;103098.91;;;0.78;95.15
23473;BME280;11909;52.516;13.564;2023-01-25T01:56:44;103099.03;;;0.76;94.93
23473;BME280;11909;52.516;13.564;2023-01-25T01:59:13;103097.34;;;0.75;95.07
23473;BME280;11909;52.516;13.564;2023-01-25T02:01:42;103092.81;;;0.76;95.19
23473;BME280;11909;52.516;13.564;2023-01-25T02:04:12;103099.81;;;0.87;95.56
23473;BME280;11909;52.516;13.564;2023-01-25T02:06:44;103095.94;;;0.89;95.05
23473;BME280;11909;52.516;13.564;2023-01-25T02:09:15;103096.47;;;0.93;95.04
23473;BME280;11909;52.516;13.564;2023-01-25T02:11:46;103104.91;;;0.90;94.58
23473;BME280;11909;52.516;13.564;2023-01-25T02:14:15;103091.53;;;0.88;94.72
23473;BME280;11909;52.516;13.564;2023-01-25T02:16:43;103094.94;;;0.90;94.56
23473;BME280;11909;52.516;13.564;2023-01-25T02:19:18;103095.25;;;0.87;94.51
23473;BME280;11909;52.516;13.564;2023-01-25T02:21:52;103086.44;;;0.85;94.51
23473;BME280;11909;52.516;13.564;2023-01-25T02:24:25;103089.69;;;0.89;94.87
23473;BME280;11909;52.516;13.564;2023-01-25T02:26:56;103088.13;;;0.86;94.45
23473;BME280;11909;52.516;13.564;2023-01-25T02:29:25;103082.91;;;0.84;94.93
23473;BME280;11909;52.516;13.564;2023-01-25T02:31:59;103083.41;;;0.88;94.38
23473;BME280;11909;52.516;13.564;2023-01-25T02:34:28;103088.69;;;0.90;94.56
23473;BME280;11909;52.516;13.564;2023-01-25T02:36:56;103086.44;;;0.85;94.51
23473;BME280;11909;52.516;13.564;2023-01-25T02:39:26;103085.94;;;0.81;94.51
23473;BME280;11909;52.516;13.564;2023-01-25T02:41:53;103085.22;;;0.79;94.75
23473;BME280;11909;52.516;13.564;2023-01-25T02:44:26;103081.34;;;0.82;94.61
23473;BME280;11909;52.516;13.564;2023-01-25T02:46:54;103082.50;;;0.79;94.26
23473;BME280;11909;52.516;13.564;2023-01-25T02:49:22;103071.69;;;0.79;94.99
23473;BME280;11909;52.516;13.564;2023-01-25T02:51:52;103078.97;;;0.79;95.09
23473;BME280;11909;52.516;13.564;2023-01-25T02:54:23;103071.00;;;0.77;95.69
23473;BME280;11909;52.516;13.564;2023-01-25T02:56:51;103074.25;;;0.81;95.69
23473;BME280;11909;52.516;13.564;2023-01-25T02:59:19;103061.75;;;0.80;96.05
23473;BME280;11909;52.516;13.564;2023-01-25T03:01:48;103061.75;;;0.80;95.82
23473;BME280;11909;52.516;13.564;2023-01-25T03:04:16;103074.25;;;0.81;95.92
23473;BME280;11909;52.516;13.564;2023-01-25T03:06:44;103060.88;;;0.79;96.13
23473;BME280;11909;52.516;13.564;2023-01-25T03:09:12;103060.03;;;0.79;95.48
23473;BME280;11909;52.516;13.564;2023-01-25T03:11:39;103065.28;;;0.80;95.77
23473;BME280;11909;52.516;13.564;2023-01-25T03:14:07;103056.88;;;0.83;95.77
23473;BME280;11909;52.516;13.564;2023-01-25T03:16:35;103049.28;;;0.87;95.53
23473;BME280;11909;52.516;13.564;2023-01-25T03:19:04;103052.16;;;0.85;95.45
23473;BME280;11909;52.516;13.564;2023-01-25T03:21:32;103044.66;;;0.79;95.81
23473;BME280;11909;52.516;13.564;2023-01-25T03:24:00;103051.75;;;0.80;96.09
23473;BME280;11909;52.516;13.564;2023-01-25T03:26:29;103046.34;;;0.80;95.94
23473;BME280;11909;52.516;13.564;2023-01-25T03:28:56;103046.84;;;0.76;96.03
23473;BME280;11909;52.516;13.564;2023-01-25T03:31:24;103042.81;;;0.80;96.15
23473;BME280;11909;52.516;13.564;2023-01-25T03:33:52;103044.84;;;0.78;96.15
23473;BME280;11909;52.516;13.564;2023-01-25T03:36:21;103043.97;;;0.77;96.79
23473;BME280;11909;52.516;13.564;2023-01-25T03:38:48;103037.03;;;0.75;96.15
23473;BME280;11909;52.516;13.564;2023-01-25T03:41:16;103041.28;;;0.77;95.88
23473;BME280;11909;52.516;13.564;2023-01-25T03:43:44;103037.88;;;0.75;96.11
23473;BME280;11909;52.516;13.564;2023-01-25T03:46:11;103031.97;;;0.71;96.00
23473;BME280;11909;52.516;13.564;2023-01-25T03:48:39;103035.34;;;0.74;96.02
23473;BME280;11909;52.516;13.564;2023-01-25T03:51:07;103035.72;;;0.79;96.39
23473;BME280;11909;52.516;13.564;2023-01-25T03:53:36;103022.09;;;0.89;96.13
23473;BME280;11909;52.516;13.564;2023-01-25T03:56:06;103027.03;;;0.93;96.00
23473;BME280;11909;52.516;13.564;2023-01-25T03:58:35;103016.50;;;0.90;96.13
23473;BME280;11909;52.516;13.564;2023-01-25T04:01:05;103014.00;;;0.89;96.19
23473;BME280;11909;52.516;13.564;2023-01-25T04:03:34;103015.31;;;0.84;96.32
23473;BME280;11909;52.516;13.564;2023-01-25T04:06:02;103017.47;;;0.81;96.30
23473;BME280;11909;52.516;13.564;2023-01-25T04:08:30;103001.25;;;0.81;96.37
23473;BME280;11909;52.516;13.564;2023-01-25T04:11:01;102995.16;;;0.79;96.56
23473;BME280;11909;52.516;13.564;2023-01-25T04:13:31;102993.47;;;0.78;96.88
23473;BME280;11909;52.516;13.564;2023-01-25T04:16:00;102990.59;;;0.79;96.27
23473;BME280;11909;52.516;13.564;2023-01-25T04:18:28;102983.81;;;0.75;96.33
23473;BME280;11909;52.516;13.564;2023-01-25T04:20:56;102983.38;;;0.88;96.65
23473;BME280;11909;52.516;13.564;2023-01-25T04:23:25;102973.44;;;0.89;95.95
23473;BME280;11909;52.516;13.564;2023-01-25T04:25:53;102972.06;;;0.84;96.30
23473;BME280;11909;52.516;13.564;2023-01-25T04:28:23;102974.78;;;0.84;96.26
23473;BME280;11909;52.516;13.564;2023-01-25T04:30:52;102964.09;;;0.83;96.64
23473;BME280;11909;52.516;13.564;2023-01-25T04:33:20;102961.41;;;0.83;96.62
23473;BME280;11909;52.516;13.564;2023-01-25T04:35:48;102961.56;;;0.81;96.65
23473;BME280;11909;52.516;13.564;2023-01-25T04:38:16;102954.44;;;0.80;97.09
23473;BME280;11909;52.516;13.564;2023-01-25T04:40:44;102951.59;;;0.82;97.50
23473;BME280;11909;52.516;13.564;2023-01-25T04:43:13;102948.22;;;0.80;98.11
23473;BME280;11909;52.516;13.564;2023-01-25T04:45:42;102947.72;;;0.84;97.30
23473;BME280;11909;52.516;13.564;2023-01-25T04:48:11;102947.41;;;0.88;96.89
23473;BME280;11909;52.516;13.564;2023-01-25T04:50:40;102949.75;;;0.82;97.22
23473;BME280;11909;52.516;13.564;2023-01-25T04:53:10;102948.06;;;0.81;97.49
23473;BME280;11909;52.516;13.564;2023-01-25T04:55:38;102948.88;;;0.82;97.69
23473;BME280;11909;52.516;13.564;2023-01-25T04:58:05;102944.34;;;0.82;97.49
23473;BME280;11909;52.516;13.564;2023-01-25T05:00:33;102933.34;;;0.84;97.75
23473;BME280;11909;52.516;13.564;2023-01-25T05:03:03;102933.03;;;0.87;97.35
23473;BME280;11909;52.516;13.564;2023-01-25T05:05:30;102931.00;;;0.89;96.93
23473;BME280;11909;52.516;13.564;2023-01-25T05:07:58;102930.50;;;0.85;97.01
23473;BME280;11909;52.516;13.564;2023-01-25T05:10:26;102923.22;;;0.86;96.95
23473;BME280;11909;52.516;13.564;2023-01-25T05:12:54;102922.09;;;0.97;97.11
23473;BME280;11909;52.516;13.564;2023-01-25T05:15:21;102925.47;;;0.99;96.95
23473;BME280;11909;52.516;13.564;2023-01-25T05:17:49;102926.91;;;1.11;96.25
23473;BME280;11909;52.516;13.564;2023-01-25T05:20:19;102930.06;;;1.07;95.80
23473;BME280;11909;52.516;13.564;2023-01-25T05:22:46;102925.00;;;1.04;96.03
23473;BME280;11909;52.516;13.564;2023-01-25T05:25:14;102921.97;;;1.07;96.00
23473;BME280;11909;52.516;13.564;2023-01-25T05:27:56;102916.22;;;1.10;96.20
23473;BME280;11909;52.516;13.564;2023-01-25T05:30:23;102919.13;;;1.08;96.36
23473;BME280;11909;52.516;13.564;2023-01-25T05:32:51;102921.00;;;1.16;96.24
23473;BME280;11909;52.516;13.564;2023-01-25T05:35:20;102922.66;;;1.09;96.93
23473;BME280;11909;52.516;13.564;2023-01-25T05:37:48;102916.88;;;1.04;97.10
23473;BME280;11909;52.516;13.564;2023-01-25T05:40:16;102922.28;;;1.04;97.40
23473;BME280;11909;52.516;13.564;2023-01-25T05:42:44;102925.53;;;1.07;97.51
23473;BME280;11909;52.516;13.564;2023-01-25T05:45:11;102925.69;;;1.06;97.21
23473;BME280;11909;52.516;13.564;2023-01-25T05:47:39;102930.75;;;1.00;97.40
23473;BME280;11909;52.516;13.564;2023-01-25T05:50:08;102919.47;;;1.13;97.04
23473;BME280;11909;52.516;13.564;2023-01-25T05:52:37;102917.78;;;1.21;96.28
23473;BME280;11909;52.516;13.564;2023-01-25T05:55:06;102915.88;;;1.05;97.04
23473;BME280;11909;52.516;13.564;2023-01-25T05:57:34;102921.13;;;1.06;97.41
23473;BME280;11909;52.516;13.564;2023-01-25T06:00:03;102916.56;;;1.07;98.18
23473;BME280;11909;52.516;13.564;2023-01-25T06:02:31;102915.88;;;1.05;97.95
23473;BME280;11909;52.516;13.564;2023-01-25T06:04:59;102905.59;;;1.08;98.15
23473;BME280;11909;52.516;13.564;2023-01-25T06:07:27;102898.34;;;1.17;97.65
23473;BME280;11909;52.516;13.564;2023-01-25T06:09:56;102903.47;;;1.37;96.09
23473;BME280;11909;52.516;13.564;2023-01-25T06:12:23;102903.13;;;1.32;96.29
23473;BME280;11909;52.516;13.564;2023-01-25T06:14:51;102898.69;;;1.22;96.13
23473;BME280;11909;52.516;13.564;2023-01-25T06:17:19;102899.16;;;1.09;97.09
23473;BME280;11909;52.516;13.564;2023-01-25T06:19:46;102894.94;;;1.15;96.99
23473;BME280;11909;52.516;13.564;2023-01-25T06:22:14;102892.75;;;1.10;97.14
23473;BME280;11909;52.516;13.564;2023-01-25T06:24:42;102888.03;;;1.12;96.82
23473;BME280;11909;52.516;13.564;2023-01-25T06:27:11;102889.88;;;1.12;97.53
23473;BME280;11909;52.516;13.564;2023-01-25T06:29:38;102878.22;;;1.11;97.68
23473;BME280;11909;52.516;13.564;2023-01-25T06:32:06;102889.50;;;1.07;97.49
23473;BME280;11909;52.516;13.564;2023-01-25T06:34:34;102884.50;;;1.20;96.93
23473;BME280;11909;52.516;13.564;2023-01-25T06:37:02;102885.78;;;1.08;97.45
23473;BME280;11909;52.516;13.564;2023-01-25T06:39:29;102881.75;;;1.12;97.41
23473;BME280;11909;52.516;13.564;2023-01-25T06:41:57;102890.91;;;1.19;97.13
23473;BME280;11909;52.516;13.564;2023-01-25T06:44:26;102889.41;;;1.25;97.25
23473;BME280;11909;52.516;13.564;2023-01-25T06:46:55;102893.56;;;1.11;97.15
23473;BME280;11909;52.516;13.564;2023-01-25T06:49:24;102886.44;;;0.93;98.22
23473;BME280;11909;52.516;13.564;2023-01-25T06:51:51;102873.47;;;1.05;98.22
23473;BME280;11909;52.516;13.564;2023-01-25T06:54:19;102881.06;;;1.10;97.56
23473;BME280;11909;52.516;13.564;2023-01-25T06:56:47;102870.91;;;1.04;97.78
23473;BME280;11909;52.516;13.564;2023-01-25T06:59:14;102865.50;;;0.95;98.79
23473;BME280;11909;52.516;13.564;2023-01-25T07:01:43;102863.28;;;0.99;98.62
23473;BME280;11909;52.516;13.564;2023-01-25T07:04:11;102859.09;;;1.05;97.61
23473;BME280;11909;52.516;13.564;2023-01-25T07:06:39;102857.94;;;1.16;96.92
23473;BME280;11909;52.516;13.564;2023-01-25T07:09:08;102861.25;;;1.01;96.89
23473;BME280;11909;52.516;13.564;2023-01-25T07:11:36;102862.44;;;0.98;97.97
23473;BME280;11909;52.516;13.564;2023-01-25T07:14:05;102865.09;;;0.90;98.43
23473;BME280;11909;52.516;13.564;2023-01-25T07:16:33;102854.13;;;0.83;98.91
23473;BME280;11909;52.516;13.564;2023-01-25T07:19:06;102848.38;;;0.87;99.48
23473;BME280;11909;52.516;13.564;2023-01-25T07:21:34;102845.56;;;0.96;98.49
23473;BME280;11909;52.516;13.564;2023-01-25T07:24:03;102845.41;;;1.06;97.69
23473;BME280;11909;52.516;13.564;2023-01-25T07:26:31;102847.59;;;1.11;97.53
23473;BME280;11909;52.516;13.564;2023-01-25T07:28:59;102841.50;;;1.09;97.50
23473;BME280;11909;52.516;13.564;2023-01-25T07:31:27;102841.50;;;1.09;97.86
23473;BME280;11909;52.516;13.564;2023-01-25T07:33:56;102840.16;;;1.05;98.24
23473;BME280;11909;52.516;13.564;2023-01-25T07:36:26;102830.69;;;1.00;98.72
23473;BME280;11909;52.516;13.564;2023-01-25T07:38:54;102828.50;;;1.04;98.13
23473;BME280;11909;52.516;13.564;2023-01-25T07:41:23;102828.31;;;0.97;98.88
23473;BME280;11909;52.516;13.564;2023-01-25T07:43:51;102826.78;;;0.95;98.66
23473;BME280;11909;52.516;13.564;2023-01-25T07:46:19;102831.03;;;1.06;98.85
23473;BME280;11909;52.516;13.564;2023-01-25T07:48:48;102828.78;;;0.84;98.40
23473;BME280;11909;52.516;13.564;2023-01-25T07:51:18;102828.31;;;0.97;97.32
23473;BME280;11909;52.516;13.564;2023-01-25T07:53:51;102830.16;;;0.89;97.61
23473;BME280;11909;52.516;13.564;2023-01-25T07:56:21;102822.84;;;0.81;98.70
23473;BME280;11909;52.516;13.564;2023-01-25T07:58:51;102814.25;;;0.85;98.68
23473;BME280;11909;52.516;13.564;2023-01-25T08:01:20;102812.19;;;0.79;98.99
23473;BME280;11909;52.516;13.564;2023-01-25T08:03:48;102808.81;;;0.77;99.17
23473;BME280;11909;52.516;13.564;2023-01-25T08:06:16;102801.38;;;0.79;99.59
23473;BME280;11909;52.516;13.564;2023-01-25T08:08:54;102813.91;;;0.89;99.32
23473;BME280;11909;52.516;13.564;2023-01-25T08:11:24;102803.78;;;0.82;99.64
23473;BME280;11909;52.516;13.564;2023-01-25T08:13:52;102795.28;;;0.77;99.49
23473;BME280;11909;52.516;13.564;2023-01-25T08:16:21;102788.03;;;0.78;100.00
23473;BME280;11909;52.516;13.564;2023-01-25T08:18:50;102788.03;;;0.78;100.00
23473;BME280;11909;52.516;13.564;2023-01-25T08:21:18;102795.84;;;0.89;100.00
23473;BME280;11909;52.516;13.564;2023-01-25T08:23:46;102790.28;;;0.91;100.00
23473;BME280;11909;52.516;13.564;2023-01-25T08:26:15;102792.09;;;0.82;100.00
23473;BME280;11909;52.516;13.564;2023-01-25T08:28:43;102787.22;;;0.94;100.00
23473;BME280;11909;52.516;13.564;2023-01-25T08:31:12;102782.53;;;1.04;100.00
23473;BME280;11909;52.516;13.564;2023-01-25T08:33:42;102773.19;;;0.90;100.00
23473;BME280;11909;52.516;13.564;2023-01-25T08:36:12;102774.38;;;0.88;100.00
23473;BME280;11909;52.516;13.564;2023-01-25T08:38:41;102782.63;;;0.78;100.00
23473;BME280;11909;52.516;13.564;2023-01-25T08:41:10;102775.72;;;0.83;100.00
23473;BME280;11909;52.516;13.564;2023-01-25T08:43:40;102770.63;;;0.80;100.00
23473;BME280;11909;52.516;13.564;2023-01-25T08:46:08;102776.56;;;0.92;100.00
23473;BME280;11909;52.516;13.564;2023-01-25T08:48:36;102771.50;;;0.89;100.00
23473;BME280;11909;52.516;13.564;2023-01-25T08:51:07;102771.53;;;0.97;100.00
23473;BME280;11909;52.516;13.564;2023-01-25T08:53:35;102776.75;;;0.91;100.00
23473;BME280;11909;52.516;13.564;2023-01-25T08:56:03;102780.47;;;0.90;100.00
23473;BME280;11909;52.516;13.564;2023-01-25T08:58:31;102780.63;;;0.88;100.00
23473;BME280;11909;52.516;13.564;2023-01-25T09:01:02;102768.63;;;0.82;100.00
23473;BME280;11909;52.516;13.564;2023-01-25T09:03:30;102773.03;;;0.83;100.00
23473;BME280;11909;52.516;13.564;2023-01-25T09:05:58;102780.25;;;0.75;100.00
23473;BME280;11909;52.516;13.564;2023-01-25T09:08:26;102769.41;;;0.66;100.00
23473;BME280;11909;52.516;13.564;2023-01-25T09:10:54;102775.69;;;0.75;100.00
23473;BME280;11909;52.516;13.564;2023-01-25T09:13:21;102768.97;;;0.88;100.00
23473;BME280;11909;52.516;13.564;2023-01-25T09:15:49;102779.06;;;0.77;100.00
23473;BME280;11909;52.516;13.564;2023-01-25T09:18:18;102776.38;;;0.77;100.00
23473;BME280;11909;52.516;13.564;2023-01-25T09:20:46;102775.00;;;0.73;100.00
23473;BME280;11909;52.516;13.564;2023-01-25T09:23:13;102773.50;;;0.70;100.00
23473;BME280;11909;52.516;13.564;2023-01-25T09:25:41;102776.88;;;0.73;100.00
23473;BME280;11909;52.516;13.564;2023-01-25T09:28:09;102774.00;;;0.74;100.00
23473;BME280;11909;52.516;13.564;2023-01-25T09:30:37;102770.63;;;0.72;100.00
23473;BME280;11909;52.516;13.564;2023-01-25T09:33:14;102772.63;;;0.70;100.00
23473;BME280;11909;52.516;13.564;2023-01-25T09:35:47;102761.16;;;0.76;100.00
23473;BME280;11909;52.516;13.564;2023-01-25T09:38:15;102756.28;;;0.71;100.00
23473;BME280;11909;52.516;13.564;2023-01-25T09:40:50;102754.94;;;0.76;100.00
23473;BME280;11909;52.516;13.564;2023-01-25T09:43:31;102754.41;;;0.72;100.00
23473;BME280;11909;52.516;13.564;2023-01-25T09:46:11;102751.69;;;0.72;100.00
23473;BME280;11909;52.516;13.564;2023-01-25T09:48:51;102747.63;;;0.68;100.00
23473;BME280;11909;52.516;13.564;2023-01-25T09:51:48;102747.97;;;0.65;100.00
23473;BME280;11909;52.516;13.564;2023-01-25T09:54:19;102742.91;;;0.62;100.00
23473;BME280;11909;52.516;13.564;2023-01-25T09:56:49;102738.97;;;0.48;100.00
23473;BME280;11909;52.516;13.564;2023-01-25T09:59:21;102736.63;;;0.53;100.00
23473;BME280;11909;52.516;13.564;2023-01-25T10:01:54;102742.38;;;0.66;100.00
23473;BME280;11909;52.516;13.564;2023-01-25T10:04:24;102731.06;;;0.63;100.00
23473;BME280;11909;52.516;13.564;2023-01-25T10:06:57;102733.97;;;0.69;100.00
23473;BME280;11909;52.516;13.564;2023-01-25T10:09:34;102730.94;;;0.73;100.00
23473;BME280;11909;52.516;13.564;2023-01-25T10:12:11;102729.41;;;0.70;100.00
23473;BME280;11909;52.516;13.564;2023-01-25T10:14:40;102723.31;;;0.68;100.00
23473;BME280;11909;52.516;13.564;2023-01-25T10:17:13;102724.81;;;0.62;100.00
23473;BME280;11909;52.516;13.564;2023-01-25T10:19:56;102720.13;;;0.81;100.00
23473;BME280;11909;52.516;13.564;2023-01-25T10:22:34;102713.31;;;0.60;100.00
23473;BME280;11909;52.516;13.564;2023-01-25T10:25:18;102705.06;;;0.62;100.00
23473;BME280;11909;52.516;13.564;2023-01-25T10:28:00;102706.56;;;0.64;100.00
23473;BME280;11909;52.516;13.564;2023-01-25T10:30:36;102702.84;;;0.65;100.00
23473;BME280;11909;52.516;13.564;2023-01-25T10:33:12;102693.91;;;0.65;100.00
23473;BME280;11909;52.516;13.564;2023-01-25T10:35:43;102690.34;;;0.64;100.00
23473;BME280;11909;52.516;13.564;2023-01-25T10:38:18;102683.09;;;0.65;100.00
23473;BME280;11909;52.516;13.564;2023-01-25T10:40:51;102690.00;;;0.51;100.00
23473;BME280;11909;52.516;13.564;2023-01-25T10:43:20;102690.88;;;0.68;100.00
23473;BME280;11909;52.516;13.564;2023-01-25T10:45:49;102685.28;;;0.61;100.00
23473;BME280;11909;52.516;13.564;2023-01-25T10:48:20;102687.47;;;0.49;100.00
23473;BME280;11909;52.516;13.564;2023-01-25T10:50:49;102673.25;;;0.39;100.00
23473;BME280;11909;52.516;13.564;2023-01-25T10:53:30;102678.13;;;0.35;100.00
23473;BME280;11909;52.516;13.564;2023-01-25T10:56:11;102670.91;;;0.36;100.00
23473;BME280;11909;52.516;13.564;2023-01-25T10:58:46;102658.75;;;0.48;100.00
23473;BME280;11909;52.516;13.564;2023-01-25T11:01:24;102665.44;;;0.27;100.00
23473;BME280;11909;52.516;13.564;2023-01-25T11:03:53;102654.69;;;0.36;100.00
23473;BME280;11909;52.516;13.564;2023-01-25T11:06:29;102642.88;;;0.37;100.00
23473;BME280;11909;52.516;13.564;2023-01-25T11:08:59;102639.16;;;0.54;100.00
23473;BME280;11909;52.516;13.564;2023-01-25T11:11:32;102641.38;;;0.51;100.00
23473;BME280;11909;52.516;13.564;2023-01-25T11:14:02;102645.94;;;0.59;100.00
23473;BME280;11909;52.516;13.564;2023-01-25T11:16:44;102633.78;;;0.63;100.00
23473;BME280;11909;52.516;13.564;2023-01-25T11:19:27;102630.22;;;0.54;100.00
23473;BME280;11909;52.516;13.564;2023-01-25T11:21:58;102613.84;;;0.55;100.00
23473;BME280;11909;52.516;13.564;2023-01-25T11:24:28;102615.88;;;0.53;100.00
23473;BME280;11909;52.516;13.564;2023-01-25T11:27:17;102608.44;;;0.55;100.00
23473;BME280;11909;52.516;13.564;2023-01-25T11:29:45;102607.25;;;0.50;100.00
23473;BME280;11909;52.516;13.564;2023-01-25T11:32:33;102601.88;;;0.50;100.00
23473;BME280;11909;52.516;13.564;2023-01-25T11:35:01;102596.94;;;0.53;100.00
23473;BME280;11909;52.516;13.564;2023-01-25T11:37:41;102592.75;;;0.51;100.00
23473;BME280;11909;52.516;13.564;2023-01-25T11:40:19;102586.16;;;0.62;100.00
23473;BME280;11909;52.516;13.564;2023-01-25T11:42:55;102577.88;;;0.63;100.00
23473;BME280;11909;52.516;13.564;2023-01-25T11:45:50;102576.00;;;0.55;100.00
23473;BME280;11909;52.516;13.564;2023-01-25T11:48:44;102563.69;;;0.53;100.00
23473;BME280;11909;52.516;13.564;2023-01-25T11:51:18;102554.41;;;0.55;100.00
23473;BME280;11909;52.516;13.564;2023-01-25T11:54:04;102545.63;;;0.45;100.00
23473;BME280;11909;52.516;13.564;2023-01-25T11:56:44;102544.28;;;0.49;100.00
23473;BME280;11909;52.516;13.564;2023-01-25T11:59:27;102543.59;;;0.55;100.00
23473;BME280;11909;52.516;13.564;2023-01-25T12:02:18;102527.38;;;0.55;100.00
23473;BME280;11909;52.516;13.564;2023-01-25T12:04:58;102523.19;;;0.53;100.00
23473;BME280;11909;52.516;13.564;2023-01-25T12:07:47;102520.13;;;0.39;100.00
23473;BME280;11909;52.516;13.564;2023-01-25T12:10:25;102517.09;;;0.34;100.00
23473;BME280;11909;52.516;13.564;2023-01-25T12:13:04;102516.41;;;0.40;100.00
23473;BME280;11909;52.516;13.564;2023-01-25T12:15:53;102503.91;;;0.39;100.00
23473;BME280;11909;52.516;13.564;2023-01-25T12:21:37;102499.84;;;0.43;100.00
23473;BME280;11909;52.516;13.564;2023-01-25T12:24:18;102497.50;;;0.40;100.00
23473;BME280;11909;52.516;13.564;2023-01-25T12:26:57;102480.97;;;0.35;100.00
23473;BME280;11909;52.516;13.564;2023-01-25T12:29:33;102468.78;;;0.39;100.00
23473;BME280;11909;52.516;13.564;2023-01-25T12:32:07;102467.78;;;0.40;100.00
23473;BME280;11909;52.516;13.564;2023-01-25T12:34:40;102469.81;;;0.55;100.00
23473;BME280;11909;52.516;13.564;2023-01-25T12:37:14;102473.03;;;0.42;100.00
23473;BME280;11909;52.516;13.564;2023-01-25T12:39:47;102464.94;;;0.42;100.00
23473;BME280;11909;52.516;13.564;2023-01-25T12:42:18;102461.53;;;0.48;100.00
23473;BME280;11909;52.516;13.564;2023-01-25T12:44:54;102464.75;;;0.35;100.00
23473;BME280;11909;52.516;13.564;2023-01-25T12:47:27;102459.34;;;0.35;100.00
23473;BME280;11909;52.516;13.564;2023-01-25T12:50:03;102448.03;;;0.40;100.00
23473;BME280;11909;52.516;13.564;2023-01-25T12:52:36;102439.09;;;0.31;100.00
23473;BME280;11909;52.516;13.564;2023-01-25T12:55:11;102440.28;;;0.45;100.00
23473;BME280;11909;52.516;13.564;2023-01-25T12:57:43;102433.34;;;0.42;100.00
23473;BME280;11909;52.516;13.564;2023-01-25T13:00:20;102431.16;;;0.38;100.00
23473;BME280;11909;52.516;13.564;2023-01-25T13:02:59;102431.66;;;0.41;100.00
23473;BME280;11909;52.516;13.564;2023-01-25T13:05:32;102430.81;;;0.41;100.00
23473;BME280;11909;52.516;13.564;2023-01-25T13:08:12;102420.84;;;0.41;100.00
23473;BME280;11909;52.516;13.564;2023-01-25T13:11:09;102429.63;;;0.52;100.00
23473;BME280;11909;52.516;13.564;2023-01-25T13:13:38;102424.72;;;0.47;100.00